createdAt,value
2018-05-01T00:00:34.723Z,8.80
2018-05-01T00:03:02.261Z,8.80
2018-05-01T00:05:29.724Z,8.80
2018-05-01T00:07:57.273Z,8.90
2018-05-01T00:10:24.792Z,8.90
2018-05-01T00:12:52.273Z,8.80
2018-05-01T00:15:20.501Z,8.80
2018-05-01T00:17:48.076Z,8.80
2018-05-01T00:20:15.533Z,8.80
2018-05-01T00:22:43.016Z,8.80
2018-05-01T00:25:11.239Z,8.80
2018-05-01T00:27:38.731Z,8.80
2018-05-01T00:30:06.191Z,8.80
2018-05-01T00:32:34.432Z,8.90
2018-05-01T00:35:01.912Z,8.80
2018-05-01T00:37:29.389Z,8.80
2018-05-01T00:39:57.622Z,8.90
2018-05-01T00:42:25.135Z,8.80
2018-05-01T00:44:52.601Z,8.80
2018-05-01T00:47:20.127Z,8.80
2018-05-01T00:49:47.589Z,8.80
2018-05-01T01:05:43.342Z,8.70
2018-05-01T01:08:10.787Z,8.70
2018-05-01T01:10:38.266Z,8.70
2018-05-01T01:13:05.744Z,8.60
2018-05-01T01:15:33.310Z,8.60
2018-05-01T01:18:00.788Z,8.60
2018-05-01T01:20:29.071Z,8.60
2018-05-01T01:22:57.320Z,8.70
2018-05-01T01:25:24.780Z,8.60
2018-05-01T01:27:53.070Z,8.60
2018-05-01T01:30:21.292Z,8.60
2018-05-01T01:32:55.647Z,8.60
2018-05-01T01:35:22.647Z,8.60
2018-05-01T01:37:49.676Z,8.60
2018-05-01T01:40:16.687Z,8.50
2018-05-01T01:42:43.688Z,8.60
2018-05-01T01:45:10.660Z,8.50
2018-05-01T01:47:37.670Z,8.60
2018-05-01T01:50:04.717Z,8.50
2018-05-01T01:52:31.714Z,8.60
2018-05-01T01:54:58.672Z,8.60
2018-05-01T01:57:26.474Z,8.60
2018-05-01T01:59:53.472Z,8.60
2018-05-01T02:02:20.515Z,8.60
2018-05-01T02:04:47.498Z,8.50
2018-05-01T02:07:14.559Z,8.50
2018-05-01T02:09:41.536Z,8.50
2018-05-01T02:12:08.610Z,8.50
2018-05-01T02:14:36.374Z,8.40
2018-05-01T02:17:03.464Z,8.40
2018-05-01T02:19:30.491Z,8.40
2018-05-01T02:21:58.341Z,8.50
2018-05-01T02:24:26.102Z,8.40
2018-05-01T02:26:53.292Z,8.40
2018-05-01T02:29:20.283Z,8.40
2018-05-01T02:31:47.252Z,8.30
2018-05-01T02:34:14.998Z,8.30
2018-05-01T02:36:41.964Z,8.30
2018-05-01T02:39:09.712Z,8.30
2018-05-01T02:41:37.487Z,8.30
2018-05-01T02:44:05.235Z,8.30
2018-05-01T02:46:32.213Z,8.20
2018-05-01T02:48:59.224Z,8.20
2018-05-01T02:51:26.206Z,8.20
2018-05-01T02:53:53.953Z,8.30
2018-05-01T02:56:22.057Z,8.30
2018-05-01T02:58:49.164Z,8.30
2018-05-01T03:01:16.907Z,8.30
2018-05-01T03:03:44.019Z,8.30
2018-05-01T03:06:10.999Z,8.20
2018-05-01T03:08:37.998Z,8.30
2018-05-01T03:11:05.005Z,8.20
2018-05-01T03:13:32.004Z,8.30
2018-05-01T03:15:58.981Z,8.20
2018-05-01T03:18:25.971Z,8.10
2018-05-01T03:20:53.709Z,8.20
2018-05-01T03:23:20.701Z,8.20
2018-05-01T03:25:47.668Z,8.20
2018-05-01T03:28:14.649Z,8.20
2018-05-01T03:30:41.651Z,8.20
2018-05-01T03:33:08.643Z,8.20
2018-05-01T03:35:35.648Z,8.20
2018-05-01T03:38:02.617Z,8.10
2018-05-01T03:40:30.394Z,8.20
2018-05-01T03:42:57.390Z,8.20
2018-05-01T03:45:24.381Z,8.20
2018-05-01T03:47:52.128Z,8.10
2018-05-01T03:50:19.115Z,8.10
2018-05-01T03:52:46.853Z,8.10
2018-05-01T03:55:14.628Z,8.10
2018-05-01T03:57:42.534Z,8.10
2018-05-01T04:00:09.532Z,8.10
2018-05-01T04:02:36.495Z,8.10
2018-05-01T04:05:03.501Z,8.10
2018-05-01T04:07:30.582Z,8.10
2018-05-01T04:09:57.583Z,8.10
2018-05-01T04:12:24.542Z,8.10
2018-05-01T04:14:51.764Z,8.10
2018-05-01T04:17:18.727Z,8.10
2018-05-01T04:19:45.730Z,8.00
2018-05-01T04:22:13.477Z,8.00
2018-05-01T04:24:41.239Z,8.10
2018-05-01T04:27:08.208Z,8.00
2018-05-01T04:29:35.948Z,8.00
2018-05-01T04:32:02.939Z,7.90
2018-05-01T04:34:29.908Z,8.00
2018-05-01T04:36:56.887Z,8.00
2018-05-01T04:39:23.935Z,8.00
2018-05-01T04:41:50.920Z,7.90
2018-05-01T04:44:17.891Z,8.00
2018-05-01T04:46:44.975Z,8.00
2018-05-01T04:49:11.939Z,8.00
2018-05-01T04:51:39.744Z,7.90
2018-05-01T04:54:06.698Z,7.90
2018-05-01T04:56:33.693Z,8.00
2018-05-01T04:59:01.424Z,8.00
2018-05-01T05:01:28.426Z,7.90
2018-05-01T05:03:55.396Z,8.00
2018-05-01T05:06:22.400Z,7.90
2018-05-01T05:08:50.148Z,8.00
2018-05-01T05:11:18.016Z,7.90
2018-05-01T05:13:45.946Z,7.90
2018-05-01T05:16:13.023Z,7.90
2018-05-01T05:18:40.767Z,7.90
2018-05-01T05:21:07.769Z,7.90
2018-05-01T05:23:34.736Z,7.90
2018-05-01T05:26:01.718Z,7.90
2018-05-01T05:28:28.700Z,7.90
2018-05-01T05:30:55.683Z,7.90
2018-05-01T05:33:22.691Z,7.80
2018-05-01T05:35:49.707Z,7.80
2018-05-01T05:38:16.695Z,7.70
2018-05-01T05:40:43.691Z,7.70
2018-05-01T05:43:10.787Z,7.70
2018-05-01T05:45:37.780Z,7.70
2018-05-01T05:48:04.846Z,7.80
2018-05-01T05:50:32.583Z,7.80
2018-05-01T05:52:59.592Z,7.80
2018-05-01T05:55:26.564Z,7.80
2018-05-01T05:57:53.682Z,7.90
2018-05-01T06:00:20.686Z,7.80
2018-05-01T06:02:47.778Z,7.90
2018-05-01T06:05:14.783Z,7.90
2018-05-01T06:07:41.925Z,8.00
2018-05-01T06:10:08.856Z,7.90
2018-05-01T06:12:35.848Z,8.00
2018-05-01T06:15:02.876Z,8.10
2018-05-01T06:17:30.755Z,8.20
2018-05-01T06:19:58.540Z,8.20
2018-05-01T06:22:25.655Z,8.20
2018-05-01T06:24:53.895Z,8.30
2018-05-01T06:27:20.973Z,8.30
2018-05-01T06:29:47.977Z,8.50
2018-05-01T06:32:15.058Z,8.50
2018-05-01T06:34:42.052Z,8.60
2018-05-01T06:37:09.100Z,8.70
2018-05-01T06:39:36.140Z,8.70
2018-05-01T06:42:03.114Z,8.70
2018-05-01T06:44:30.203Z,8.70
2018-05-01T06:46:57.247Z,8.80
2018-05-01T06:49:24.231Z,8.80
2018-05-01T06:51:51.251Z,8.90
2018-05-01T06:54:19.007Z,8.80
2018-05-01T06:56:46.808Z,8.80
2018-05-01T06:59:13.810Z,8.80
2018-05-01T07:01:40.772Z,8.90
2018-05-01T07:04:08.532Z,8.90
2018-05-01T07:06:36.330Z,8.80
2018-05-01T07:09:03.393Z,8.80
2018-05-01T07:11:30.392Z,8.80
2018-05-01T07:13:58.251Z,8.80
2018-05-01T07:16:25.994Z,8.80
2018-05-01T07:18:53.525Z,8.80
2018-05-01T07:21:20.523Z,8.90
2018-05-01T07:23:48.288Z,8.80
2018-05-01T07:26:16.042Z,8.90
2018-05-01T07:28:43.816Z,9.00
2018-05-01T07:31:11.548Z,9.00
2018-05-01T07:33:38.539Z,9.00
2018-05-01T07:36:06.432Z,9.20
2018-05-01T07:38:34.151Z,9.20
2018-05-01T07:41:01.146Z,9.10
2018-05-01T07:43:28.128Z,9.10
2018-05-01T07:45:55.132Z,9.20
2018-05-01T07:48:22.143Z,9.30
2018-05-01T07:50:49.900Z,9.40
2018-05-01T07:53:17.655Z,9.50
2018-05-01T07:55:44.646Z,9.50
2018-05-01T07:58:11.761Z,9.50
2018-05-01T08:00:39.519Z,9.60
2018-05-01T08:03:07.347Z,9.60
2018-05-01T08:05:35.045Z,9.60
2018-05-01T08:08:02.014Z,9.50
2018-05-01T08:10:29.773Z,9.60
2018-05-01T08:12:57.522Z,9.70
2018-05-01T08:15:25.391Z,9.80
2018-05-01T08:17:53.151Z,9.80
2018-05-01T08:20:20.911Z,9.80
2018-05-01T08:22:48.683Z,9.80
2018-05-01T08:25:16.447Z,9.90
2018-05-01T08:27:44.204Z,10.00
2018-05-01T08:30:11.185Z,10.00
2018-05-01T08:32:38.679Z,10.00
2018-05-01T08:35:05.656Z,10.00
2018-05-01T08:37:33.497Z,10.00
2018-05-01T08:40:00.460Z,11.20
2018-05-01T08:42:27.523Z,10.00
2018-05-01T08:44:55.284Z,10.00
2018-05-01T08:47:23.139Z,10.10
2018-05-01T08:49:51.635Z,10.20
2018-05-01T08:52:19.397Z,10.30
2018-05-01T08:54:47.879Z,10.20
2018-05-01T08:57:15.736Z,10.20
2018-05-01T08:59:42.675Z,10.20
2018-05-01T09:02:09.666Z,10.20
2018-05-01T09:04:36.671Z,10.10
2018-05-01T09:07:04.491Z,10.10
2018-05-01T09:09:31.554Z,10.40
2018-05-01T09:11:58.533Z,10.50
2018-05-01T09:14:26.263Z,10.80
2018-05-01T09:16:53.326Z,10.80
2018-05-01T09:19:21.022Z,11.00
2018-05-01T09:21:48.754Z,11.10
2018-05-01T09:24:15.854Z,11.10
2018-05-01T09:26:42.829Z,11.40
2018-05-01T09:29:09.839Z,11.50
2018-05-01T09:31:36.831Z,11.50
2018-05-01T09:34:03.895Z,11.70
2018-05-01T09:36:31.663Z,11.80
2018-05-01T09:38:58.657Z,11.70
2018-05-01T09:41:25.650Z,11.70
2018-05-01T09:43:52.749Z,11.60
2018-05-01T09:46:19.719Z,11.40
2018-05-01T09:48:46.704Z,11.40
2018-05-01T09:51:14.447Z,11.50
2018-05-01T09:53:41.946Z,11.50
2018-05-01T09:56:09.518Z,11.70
2018-05-01T09:58:37.008Z,11.80
2018-05-01T10:01:05.441Z,11.70
2018-05-01T10:03:33.011Z,11.90
2018-05-01T10:06:00.487Z,11.90
2018-05-01T10:08:27.963Z,11.80
2018-05-01T10:10:55.435Z,11.80
2018-05-01T10:13:23.052Z,11.90
2018-05-01T10:15:50.516Z,12.10
2018-05-01T10:18:18.160Z,12.30
2018-05-01T10:20:45.641Z,12.30
2018-05-01T10:23:13.117Z,12.30
2018-05-01T10:25:40.627Z,12.30
2018-05-01T10:28:08.099Z,12.40
2018-05-01T10:30:35.588Z,12.30
2018-05-01T10:33:03.107Z,12.20
2018-05-01T10:35:30.600Z,12.30
2018-05-01T10:37:58.080Z,12.60
2018-05-01T10:40:25.567Z,12.60
2018-05-01T10:42:53.104Z,12.70
2018-05-01T10:45:20.587Z,12.70
2018-05-01T10:47:48.166Z,12.80
2018-05-01T10:50:15.652Z,12.70
2018-05-01T10:52:43.137Z,12.80
2018-05-01T10:55:11.405Z,12.80
2018-05-01T10:57:38.969Z,12.70
2018-05-01T11:00:07.220Z,13.00
2018-05-01T11:02:34.712Z,13.00
2018-05-01T11:05:02.976Z,13.00
2018-05-01T11:07:31.215Z,13.00
2018-05-01T11:09:58.694Z,13.00
2018-05-01T11:12:26.199Z,13.00
2018-05-01T11:14:53.703Z,12.90
2018-05-01T11:17:21.251Z,12.90
2018-05-01T11:19:48.725Z,12.90
2018-05-01T11:22:16.204Z,12.90
2018-05-01T11:24:44.602Z,13.10
2018-05-01T11:27:12.017Z,13.00
2018-05-01T11:29:39.527Z,13.00
2018-05-01T11:32:09.741Z,13.10
2018-05-01T11:34:37.251Z,13.20
2018-05-01T11:37:04.752Z,13.40
2018-05-01T11:39:32.237Z,13.40
2018-05-01T11:42:00.612Z,13.30
2018-05-01T11:44:28.090Z,13.30
2018-05-01T11:46:55.617Z,13.30
2018-05-01T11:49:23.095Z,13.40
2018-05-01T11:51:50.603Z,13.30
2018-05-01T11:54:18.840Z,13.10
2018-05-01T11:56:46.357Z,13.10
2018-05-01T11:59:13.901Z,13.10
2018-05-01T12:01:42.159Z,13.30
2018-05-01T12:04:09.632Z,13.30
2018-05-01T12:06:37.859Z,13.80
2018-05-01T12:09:05.370Z,13.70
2018-05-01T12:11:33.600Z,13.80
2018-05-01T12:14:01.123Z,13.80
2018-05-01T12:16:28.588Z,13.90
2018-05-01T12:18:56.083Z,13.70
2018-05-01T12:21:23.554Z,13.80
2018-05-01T12:23:51.795Z,13.40
2018-05-01T12:26:19.285Z,13.50
2018-05-01T12:28:47.284Z,13.20
2018-05-01T12:31:14.777Z,13.40
2018-05-01T12:33:42.275Z,13.40
2018-05-01T12:36:09.748Z,13.40
2018-05-01T12:38:38.016Z,13.40
2018-05-01T12:41:06.247Z,13.50
2018-05-01T12:43:33.871Z,13.40
2018-05-01T12:46:01.354Z,13.80
2018-05-01T12:48:28.875Z,14.00
2018-05-01T12:50:56.319Z,13.90
2018-05-01T12:53:23.796Z,14.10
2018-05-01T12:55:51.284Z,13.90
2018-05-01T12:58:18.743Z,14.00
2018-05-01T13:00:46.227Z,14.30
2018-05-01T13:03:13.738Z,14.60
2018-05-01T13:05:41.376Z,14.50
2018-05-01T13:08:09.679Z,14.40
2018-05-01T13:10:37.209Z,14.40
2018-05-01T13:13:05.436Z,14.90
2018-05-01T13:15:32.936Z,14.90
2018-05-01T13:18:01.159Z,14.80
2018-05-01T13:20:28.753Z,14.80
2018-05-01T13:22:56.804Z,14.50
2018-05-01T13:25:24.362Z,14.40
2018-05-01T13:27:51.834Z,14.40
2018-05-01T13:30:19.418Z,14.00
2018-05-01T13:32:47.649Z,14.20
2018-05-01T13:35:15.161Z,14.20
2018-05-01T13:37:43.459Z,14.20
2018-05-01T13:40:10.939Z,14.10
2018-05-01T13:42:38.417Z,14.10
2018-05-01T13:45:05.905Z,14.10
2018-05-01T13:47:34.133Z,14.90
2018-05-01T13:50:01.616Z,14.90
2018-05-01T13:52:29.084Z,14.90
2018-05-01T13:54:57.326Z,15.00
2018-05-01T13:57:24.878Z,15.00
2018-05-01T13:59:52.394Z,15.30
2018-05-01T14:02:19.868Z,15.60
2018-05-01T14:04:47.359Z,15.60
2018-05-01T14:07:14.854Z,15.60
2018-05-01T14:09:44.213Z,15.40
2018-05-01T14:12:11.746Z,15.40
2018-05-01T14:14:39.276Z,16.20
2018-05-01T14:17:07.560Z,17.70
2018-05-01T14:19:35.821Z,17.20
2018-05-01T14:22:03.302Z,17.20
2018-05-01T14:24:30.800Z,16.70
2018-05-01T14:26:58.289Z,17.20
2018-05-01T14:29:25.850Z,17.20
2018-05-01T14:31:53.532Z,16.90
2018-05-01T14:34:21.064Z,17.30
2018-05-01T14:36:48.567Z,16.50
2018-05-01T14:39:16.055Z,16.40
2018-05-01T14:41:43.553Z,16.30
2018-05-01T14:44:11.827Z,16.20
2018-05-01T14:46:40.186Z,16.10
2018-05-01T14:49:08.448Z,17.10
2018-05-01T14:51:35.916Z,17.10
2018-05-01T14:54:03.380Z,16.90
2018-05-01T14:56:30.955Z,16.90
2018-05-01T14:58:59.378Z,16.00
2018-05-01T15:01:26.908Z,16.00
2018-05-01T15:03:54.367Z,16.00
2018-05-01T15:06:22.757Z,16.20
2018-05-01T15:08:50.282Z,16.30
2018-05-01T15:11:19.475Z,17.10
2018-05-01T15:13:47.704Z,17.70
2018-05-01T15:16:15.253Z,17.70
2018-05-01T15:18:42.721Z,17.80
2018-05-01T15:21:10.262Z,17.20
2018-05-01T15:23:37.743Z,16.80
2018-05-01T15:26:05.230Z,16.90
2018-05-01T15:28:33.479Z,17.00
2018-05-01T15:31:00.993Z,17.00
2018-05-01T15:33:29.229Z,18.30
2018-05-01T15:35:56.734Z,18.30
2018-05-01T15:38:24.218Z,20.10
2018-05-01T15:40:51.716Z,19.80
2018-05-01T15:43:19.957Z,20.30
2018-05-01T15:45:47.446Z,20.30
2018-05-01T15:48:14.942Z,20.50
2018-05-01T15:50:42.419Z,21.00
2018-05-01T15:53:09.882Z,21.80
2018-05-01T15:55:37.385Z,22.30
2018-05-01T15:58:05.694Z,21.40
2018-05-01T16:00:33.209Z,21.40
2018-05-01T16:03:01.462Z,20.30
2018-05-01T16:05:28.952Z,20.30
2018-05-01T16:07:56.537Z,19.80
2018-05-01T16:10:24.122Z,18.70
2018-05-01T16:12:51.517Z,17.70
2018-05-01T16:15:18.996Z,18.10
2018-05-01T16:17:46.476Z,17.90
2018-05-01T16:20:13.966Z,17.50
2018-05-01T16:22:41.456Z,17.60
2018-05-01T16:25:08.951Z,17.60
2018-05-01T16:27:36.474Z,17.60
2018-05-01T16:30:03.954Z,17.10
2018-05-01T16:32:31.443Z,16.80
2018-05-01T16:34:58.924Z,16.80
2018-05-01T16:37:26.442Z,16.80
2018-05-01T16:39:53.921Z,16.30
2018-05-01T16:42:21.386Z,16.20
2018-05-01T16:44:48.881Z,15.90
2018-05-01T16:47:17.300Z,15.80
2018-05-01T16:49:44.788Z,15.40
2018-05-01T16:52:12.279Z,15.60
2018-05-01T16:54:40.545Z,15.30
2018-05-01T16:57:08.807Z,15.10
2018-05-01T16:59:36.308Z,15.10
2018-05-01T17:02:03.816Z,15.20
2018-05-01T17:04:31.302Z,15.40
2018-05-01T17:06:59.588Z,15.30
2018-05-01T17:09:27.100Z,15.30
2018-05-01T17:11:54.593Z,15.30
2018-05-01T17:14:22.826Z,15.40
2018-05-01T17:16:50.304Z,15.40
2018-05-01T17:19:19.350Z,14.80
2018-05-01T17:21:46.833Z,14.80
2018-05-01T17:24:14.305Z,15.00
2018-05-01T17:26:41.879Z,15.10
2018-05-01T17:29:09.427Z,15.00
2018-05-01T17:31:36.885Z,14.90
2018-05-01T17:34:04.357Z,14.90
2018-05-01T17:36:31.861Z,14.60
2018-05-01T17:38:59.521Z,14.70
2018-05-01T17:41:27.024Z,14.80
2018-05-01T17:43:54.501Z,14.80
2018-05-01T17:46:22.760Z,14.60
2018-05-01T17:48:50.349Z,14.60
2018-05-01T17:51:17.792Z,14.40
2018-05-01T17:53:46.025Z,14.40
2018-05-01T17:56:13.581Z,14.40
2018-05-01T17:58:41.049Z,14.30
2018-05-01T18:01:08.676Z,14.30
2018-05-01T18:03:36.140Z,14.40
2018-05-01T18:06:03.622Z,14.30
2018-05-01T18:08:31.085Z,14.30
2018-05-01T18:10:58.603Z,14.10
2018-05-01T18:13:26.083Z,14.20
2018-05-01T18:15:54.443Z,14.20
2018-05-01T18:18:21.899Z,14.10
2018-05-01T18:20:49.384Z,14.10
2018-05-01T18:23:16.910Z,14.00
2018-05-01T18:25:45.863Z,14.00
2018-05-01T18:28:13.349Z,13.90
2018-05-01T18:30:40.960Z,14.00
2018-05-01T18:33:08.432Z,13.90
2018-05-01T18:35:36.006Z,14.00
2018-05-01T18:38:04.314Z,13.90
2018-05-01T18:40:31.795Z,13.80
2018-05-01T18:42:59.279Z,13.80
2018-05-01T18:45:26.798Z,13.80
2018-05-01T18:47:54.280Z,13.70
2018-05-01T18:50:21.773Z,13.70
2018-05-01T18:52:50.098Z,13.60
2018-05-01T18:55:17.614Z,13.70
2018-05-01T18:57:45.943Z,13.60
2018-05-01T19:00:14.142Z,13.50
2018-05-01T19:02:41.651Z,13.50
2018-05-01T19:05:09.148Z,13.50
2018-05-01T19:07:36.632Z,13.50
2018-05-01T19:10:04.883Z,13.30
2018-05-01T19:12:33.134Z,13.30
2018-05-01T19:15:00.621Z,13.20
2018-05-01T19:17:28.131Z,13.30
2018-05-01T19:19:55.687Z,13.30
2018-05-01T19:22:23.097Z,13.20
2018-05-01T19:24:50.561Z,13.20
2018-05-01T19:27:18.161Z,13.20
2018-05-01T19:29:45.678Z,13.20
2018-05-01T19:32:13.171Z,13.10
2018-05-01T19:34:40.670Z,13.00
2018-05-01T19:37:08.179Z,13.00
2018-05-01T19:39:35.770Z,12.80
2018-05-01T19:42:03.991Z,12.70
2018-05-01T19:44:31.464Z,12.60
2018-05-01T19:46:59.719Z,12.50
2018-05-01T19:49:27.262Z,12.40
2018-05-01T19:51:54.777Z,12.40
2018-05-01T19:54:22.302Z,12.30
2018-05-01T19:56:50.550Z,12.30
2018-05-01T19:59:18.145Z,12.20
2018-05-01T20:01:46.403Z,12.10
2018-05-01T20:04:13.883Z,12.10
2018-05-01T20:06:42.144Z,12.10
2018-05-01T20:09:10.568Z,12.10
2018-05-01T20:11:38.063Z,12.00
2018-05-01T20:14:05.533Z,12.00
2018-05-01T20:16:33.040Z,11.90
2018-05-01T20:19:00.513Z,11.90
2018-05-01T20:21:28.031Z,11.90
2018-05-01T20:23:55.537Z,11.80
2018-05-01T20:26:23.055Z,11.70
2018-05-01T20:28:50.533Z,11.60
2018-05-01T20:31:18.019Z,11.60
2018-05-01T20:33:45.505Z,11.60
2018-05-01T20:36:13.760Z,11.50
2018-05-01T20:38:42.091Z,11.40
2018-05-01T20:41:09.608Z,11.40
2018-05-01T20:43:37.089Z,11.40
2018-05-01T20:46:04.837Z,11.30
2018-05-01T20:48:33.077Z,11.30
2018-05-01T20:51:00.584Z,11.20
2018-05-01T20:53:28.094Z,11.30
2018-05-01T20:55:55.600Z,11.20
2018-05-01T20:58:23.173Z,11.10
2018-05-01T21:00:50.709Z,11.00
2018-05-01T21:03:19.408Z,10.90
2018-05-01T21:05:46.900Z,10.90
2018-05-01T21:08:14.369Z,10.80
2018-05-01T21:10:41.875Z,10.80
2018-05-01T21:13:10.107Z,10.60
2018-05-01T21:15:37.620Z,10.60
2018-05-01T21:18:05.100Z,10.50
2018-05-01T21:20:32.725Z,10.50
2018-05-01T21:25:37.676Z,10.50
2018-05-01T21:28:05.156Z,10.50
2018-05-01T21:30:32.624Z,10.40
2018-05-01T21:33:00.166Z,10.40
2018-05-01T21:35:27.652Z,10.40
2018-05-01T21:37:55.149Z,10.30
2018-05-01T21:40:23.404Z,10.20
2018-05-01T21:42:50.910Z,10.10
2018-05-01T21:45:18.379Z,10.20
2018-05-01T21:47:45.884Z,10.10
2018-05-01T21:50:13.348Z,10.00
2018-05-01T21:52:40.843Z,9.60
2018-05-01T21:55:08.304Z,9.90
2018-05-01T21:57:35.794Z,9.90
2018-05-01T22:00:03.258Z,9.90
2018-05-01T22:02:30.754Z,9.90
2018-05-01T22:04:58.975Z,9.80
2018-05-01T22:07:26.460Z,9.80
2018-05-01T22:12:15.641Z,9.80
2018-05-01T22:14:43.108Z,9.60
2018-05-01T22:17:11.343Z,9.40
2018-05-01T22:19:38.848Z,9.40
2018-05-01T22:22:07.096Z,9.50
2018-05-01T22:24:34.565Z,9.50
2018-05-01T22:27:02.038Z,9.50
2018-05-01T22:29:30.302Z,9.50
2018-05-01T22:31:57.796Z,9.50
2018-05-01T22:34:25.316Z,9.40
2018-05-01T22:36:52.771Z,9.40
2018-05-01T22:39:20.237Z,9.30
2018-05-01T22:41:48.488Z,9.10
2018-05-01T22:44:15.946Z,9.10
2018-05-01T22:46:43.427Z,9.10
2018-05-01T22:49:11.649Z,8.90
2018-05-01T22:51:39.136Z,8.90
2018-05-01T22:54:06.616Z,8.90
2018-05-01T22:56:34.855Z,8.90
2018-05-01T22:59:02.312Z,8.80
2018-05-01T23:01:29.785Z,8.90
2018-05-01T23:03:58.760Z,8.80
2018-05-01T23:06:26.255Z,8.80
2018-05-01T23:08:54.501Z,8.60
2018-05-01T23:11:21.995Z,8.60
2018-05-01T23:13:50.271Z,8.70
2018-05-01T23:16:18.532Z,8.70
2018-05-01T23:18:45.996Z,8.70
2018-05-01T23:21:14.262Z,8.70
2018-05-01T23:23:41.725Z,8.70
2018-05-01T23:26:09.982Z,8.60
2018-05-01T23:28:37.447Z,8.60
2018-05-01T23:31:04.923Z,8.50
2018-05-01T23:33:33.184Z,8.40
2018-05-01T23:36:00.633Z,8.40
2018-05-01T23:38:28.220Z,8.30
2018-05-01T23:40:56.444Z,8.20
2018-05-01T23:43:23.925Z,8.20
2018-05-01T23:45:51.387Z,8.10
2018-05-01T23:48:19.650Z,8.10
2018-05-01T23:50:47.142Z,8.00
2018-05-01T23:53:15.392Z,7.90
2018-05-01T23:55:42.863Z,7.90
2018-05-01T23:58:10.343Z,7.80
